sensor_id;sensor_type;location;lat;lon;timestamp;P1;durP1;ratioP1;P2;durP2;ratioP2
16766;SDS011;8501;49.926;8.404;2022-12-18T00:01:49;61.63;;;22.37;;
16766;SDS011;8501;49.926;8.404;2022-12-18T00:04:18;63.87;;;21.07;;
16766;SDS011;8501;49.926;8.404;2022-12-18T00:06:46;56.03;;;19.67;;
16766;SDS011;8501;49.926;8.404;2022-12-18T00:09:12;59.13;;;21.07;;
16766;SDS011;8501;49.926;8.404;2022-12-18T00:11:38;55.50;;;19.80;;
16766;SDS011;8501;49.926;8.404;2022-12-18T00:14:03;63.07;;;21.03;;
16766;SDS011;8501;49.926;8.404;2022-12-18T00:16:29;66.00;;;20.53;;
16766;SDS011;8501;49.926;8.404;2022-12-18T00:18:58;55.07;;;20.77;;
16766;SDS011;8501;49.926;8.404;2022-12-18T00:21:25;68.20;;;22.10;;
16766;SDS011;8501;49.926;8.404;2022-12-18T00:23:52;60.40;;;21.80;;
16766;SDS011;8501;49.926;8.404;2022-12-18T00:26:39;68.67;;;22.00;;
16766;SDS011;8501;49.926;8.404;2022-12-18T00:29:05;70.13;;;21.10;;
16766;SDS011;8501;49.926;8.404;2022-12-18T00:31:33;59.63;;;21.70;;
16766;SDS011;8501;49.926;8.404;2022-12-18T00:33:59;75.37;;;23.67;;
16766;SDS011;8501;49.926;8.404;2022-12-18T00:36:26;63.03;;;22.03;;
16766;SDS011;8501;49.926;8.404;2022-12-18T00:38:54;78.10;;;23.63;;
16766;SDS011;8501;49.926;8.404;2022-12-18T00:41:20;69.87;;;23.63;;
16766;SDS011;8501;49.926;8.404;2022-12-18T00:44:05;64.90;;;22.27;;
16766;SDS011;8501;49.926;8.404;2022-12-18T00:46:32;67.10;;;22.53;;
16766;SDS011;8501;49.926;8.404;2022-12-18T00:48:57;68.70;;;21.20;;
16766;SDS011;8501;49.926;8.404;2022-12-18T00:51:23;69.53;;;21.60;;
16766;SDS011;8501;49.926;8.404;2022-12-18T00:53:49;60.80;;;21.07;;
16766;SDS011;8501;49.926;8.404;2022-12-18T00:56:15;63.20;;;20.23;;
16766;SDS011;8501;49.926;8.404;2022-12-18T00:58:40;65.97;;;21.53;;
16766;SDS011;8501;49.926;8.404;2022-12-18T01:01:06;68.57;;;21.00;;
16766;SDS011;8501;49.926;8.404;2022-12-18T01:03:33;66.13;;;22.70;;
16766;SDS011;8501;49.926;8.404;2022-12-18T01:05:58;62.27;;;20.67;;
16766;SDS011;8501;49.926;8.404;2022-12-18T01:08:24;65.40;;;22.27;;
16766;SDS011;8501;49.926;8.404;2022-12-18T01:10:50;58.83;;;21.20;;
16766;SDS011;8501;49.926;8.404;2022-12-18T01:13:15;62.77;;;20.40;;
16766;SDS011;8501;49.926;8.404;2022-12-18T01:15:47;62.47;;;20.53;;
16766;SDS011;8501;49.926;8.404;2022-12-18T01:18:14;62.43;;;20.53;;
16766;SDS011;8501;49.926;8.404;2022-12-18T01:20:39;57.73;;;19.60;;
16766;SDS011;8501;49.926;8.404;2022-12-18T01:23:05;65.60;;;20.37;;
16766;SDS011;8501;49.926;8.404;2022-12-18T01:25:30;59.23;;;19.47;;
16766;SDS011;8501;49.926;8.404;2022-12-18T01:27:56;57.00;;;20.63;;
16766;SDS011;8501;49.926;8.404;2022-12-18T01:30:21;56.07;;;19.67;;
16766;SDS011;8501;49.926;8.404;2022-12-18T01:32:47;56.77;;;19.77;;
16766;SDS011;8501;49.926;8.404;2022-12-18T01:35:12;61.10;;;19.43;;
16766;SDS011;8501;49.926;8.404;2022-12-18T01:37:38;64.40;;;21.30;;
16766;SDS011;8501;49.926;8.404;2022-12-18T01:40:04;59.23;;;21.17;;
16766;SDS011;8501;49.926;8.404;2022-12-18T01:42:30;57.47;;;20.10;;
16766;SDS011;8501;49.926;8.404;2022-12-18T01:47:32;52.47;;;18.90;;
16766;SDS011;8501;49.926;8.404;2022-12-18T01:50:03;52.97;;;18.77;;
16766;SDS011;8501;49.926;8.404;2022-12-18T01:52:37;52.10;;;17.20;;
16766;SDS011;8501;49.926;8.404;2022-12-18T01:55:05;50.60;;;18.57;;
16766;SDS011;8501;49.926;8.404;2022-12-18T01:57:32;56.33;;;17.80;;
16766;SDS011;8501;49.926;8.404;2022-12-18T02:00:00;57.57;;;20.03;;
16766;SDS011;8501;49.926;8.404;2022-12-18T02:02:29;59.60;;;22.37;;
16766;SDS011;8501;49.926;8.404;2022-12-18T02:04:55;62.33;;;24.93;;
16766;SDS011;8501;49.926;8.404;2022-12-18T02:10:06;62.10;;;22.30;;
16766;SDS011;8501;49.926;8.404;2022-12-18T02:12:46;62.10;;;19.77;;
16766;SDS011;8501;49.926;8.404;2022-12-18T02:15:26;58.50;;;18.67;;
16766;SDS011;8501;49.926;8.404;2022-12-18T02:21:12;55.07;;;20.47;;
16766;SDS011;8501;49.926;8.404;2022-12-18T02:24:13;54.87;;;19.20;;
16766;SDS011;8501;49.926;8.404;2022-12-18T02:26:53;57.43;;;18.70;;
16766;SDS011;8501;49.926;8.404;2022-12-18T02:29:31;53.73;;;18.27;;
16766;SDS011;8501;49.926;8.404;2022-12-18T02:32:02;50.70;;;18.10;;
16766;SDS011;8501;49.926;8.404;2022-12-18T02:34:33;49.20;;;18.23;;
16766;SDS011;8501;49.926;8.404;2022-12-18T02:37:03;46.60;;;17.87;;
16766;SDS011;8501;49.926;8.404;2022-12-18T02:39:33;50.93;;;17.73;;
16766;SDS011;8501;49.926;8.404;2022-12-18T02:42:02;53.87;;;18.07;;
16766;SDS011;8501;49.926;8.404;2022-12-18T02:44:32;46.97;;;17.03;;
16766;SDS011;8501;49.926;8.404;2022-12-18T02:46:59;48.47;;;17.30;;
16766;SDS011;8501;49.926;8.404;2022-12-18T02:49:34;46.17;;;17.90;;
16766;SDS011;8501;49.926;8.404;2022-12-18T02:57:35;46.87;;;17.43;;
16766;SDS011;8501;49.926;8.404;2022-12-18T03:00:21;54.90;;;18.93;;
16766;SDS011;8501;49.926;8.404;2022-12-18T03:03:24;50.33;;;17.37;;
16766;SDS011;8501;49.926;8.404;2022-12-18T03:05:49;47.83;;;17.27;;
16766;SDS011;8501;49.926;8.404;2022-12-18T03:08:19;51.63;;;17.10;;
16766;SDS011;8501;49.926;8.404;2022-12-18T03:11:10;42.87;;;16.10;;
16766;SDS011;8501;49.926;8.404;2022-12-18T03:16:14;44.00;;;16.93;;
16766;SDS011;8501;49.926;8.404;2022-12-18T03:18:46;41.13;;;15.47;;
16766;SDS011;8501;49.926;8.404;2022-12-18T03:21:17;47.10;;;16.67;;
16766;SDS011;8501;49.926;8.404;2022-12-18T03:23:47;40.30;;;16.47;;
16766;SDS011;8501;49.926;8.404;2022-12-18T03:26:16;48.57;;;18.07;;
16766;SDS011;8501;49.926;8.404;2022-12-18T03:28:50;41.33;;;15.70;;
16766;SDS011;8501;49.926;8.404;2022-12-18T03:31:18;38.60;;;15.27;;
16766;SDS011;8501;49.926;8.404;2022-12-18T03:33:52;43.47;;;17.47;;
16766;SDS011;8501;49.926;8.404;2022-12-18T03:36:19;43.50;;;16.00;;
16766;SDS011;8501;49.926;8.404;2022-12-18T03:38:45;45.47;;;16.87;;
16766;SDS011;8501;49.926;8.404;2022-12-18T03:51:50;41.20;;;16.60;;
16766;SDS011;8501;49.926;8.404;2022-12-18T03:54:19;43.03;;;16.47;;
16766;SDS011;8501;49.926;8.404;2022-12-18T03:56:48;42.73;;;16.17;;
16766;SDS011;8501;49.926;8.404;2022-12-18T03:59:18;48.30;;;17.03;;
16766;SDS011;8501;49.926;8.404;2022-12-18T04:01:49;40.37;;;15.77;;
16766;SDS011;8501;49.926;8.404;2022-12-18T04:04:17;43.80;;;16.20;;
16766;SDS011;8501;49.926;8.404;2022-12-18T04:06:45;40.73;;;16.03;;
16766;SDS011;8501;49.926;8.404;2022-12-18T04:09:13;47.93;;;16.67;;
16766;SDS011;8501;49.926;8.404;2022-12-18T04:11:39;39.83;;;15.53;;
16766;SDS011;8501;49.926;8.404;2022-12-18T04:14:07;43.87;;;16.57;;
16766;SDS011;8501;49.926;8.404;2022-12-18T04:16:32;42.90;;;15.77;;
16766;SDS011;8501;49.926;8.404;2022-12-18T04:18:58;43.60;;;16.03;;
16766;SDS011;8501;49.926;8.404;2022-12-18T04:21:24;39.47;;;15.13;;
16766;SDS011;8501;49.926;8.404;2022-12-18T04:23:49;42.10;;;16.13;;
16766;SDS011;8501;49.926;8.404;2022-12-18T04:26:15;39.80;;;15.30;;
16766;SDS011;8501;49.926;8.404;2022-12-18T04:28:40;44.07;;;16.13;;
16766;SDS011;8501;49.926;8.404;2022-12-18T04:31:06;38.27;;;15.33;;
16766;SDS011;8501;49.926;8.404;2022-12-18T04:33:31;45.70;;;15.83;;
16766;SDS011;8501;49.926;8.404;2022-12-18T04:35:57;43.57;;;16.10;;
16766;SDS011;8501;49.926;8.404;2022-12-18T04:38:23;38.33;;;16.03;;
16766;SDS011;8501;49.926;8.404;2022-12-18T04:40:48;43.57;;;16.87;;
16766;SDS011;8501;49.926;8.404;2022-12-18T04:43:14;48.67;;;17.70;;
16766;SDS011;8501;49.926;8.404;2022-12-18T04:45:39;44.87;;;17.07;;
16766;SDS011;8501;49.926;8.404;2022-12-18T04:48:05;45.90;;;17.40;;
16766;SDS011;8501;49.926;8.404;2022-12-18T04:50:30;44.80;;;18.40;;
16766;SDS011;8501;49.926;8.404;2022-12-18T04:52:56;44.53;;;17.43;;
16766;SDS011;8501;49.926;8.404;2022-12-18T04:55:21;40.50;;;15.97;;
16766;SDS011;8501;49.926;8.404;2022-12-18T04:57:50;44.23;;;17.37;;
16766;SDS011;8501;49.926;8.404;2022-12-18T05:00:16;44.30;;;17.03;;
16766;SDS011;8501;49.926;8.404;2022-12-18T05:02:42;43.67;;;17.20;;
16766;SDS011;8501;49.926;8.404;2022-12-18T05:05:07;50.07;;;17.70;;
16766;SDS011;8501;49.926;8.404;2022-12-18T05:07:33;43.20;;;18.10;;
16766;SDS011;8501;49.926;8.404;2022-12-18T05:09:59;48.77;;;18.63;;
16766;SDS011;8501;49.926;8.404;2022-12-18T05:12:24;44.57;;;17.80;;
16766;SDS011;8501;49.926;8.404;2022-12-18T05:14:50;44.07;;;17.47;;
16766;SDS011;8501;49.926;8.404;2022-12-18T05:17:15;44.63;;;17.93;;
16766;SDS011;8501;49.926;8.404;2022-12-18T05:19:41;45.20;;;18.20;;
16766;SDS011;8501;49.926;8.404;2022-12-18T05:22:07;49.23;;;19.33;;
16766;SDS011;8501;49.926;8.404;2022-12-18T05:24:33;46.20;;;18.10;;
16766;SDS011;8501;49.926;8.404;2022-12-18T05:26:59;44.67;;;17.40;;
16766;SDS011;8501;49.926;8.404;2022-12-18T05:29:24;45.10;;;17.50;;
16766;SDS011;8501;49.926;8.404;2022-12-18T05:31:50;42.70;;;17.27;;
16766;SDS011;8501;49.926;8.404;2022-12-18T05:34:15;49.13;;;17.87;;
16766;SDS011;8501;49.926;8.404;2022-12-18T05:36:41;46.37;;;18.93;;
16766;SDS011;8501;49.926;8.404;2022-12-18T05:39:06;48.70;;;18.60;;
16766;SDS011;8501;49.926;8.404;2022-12-18T05:41:32;45.27;;;18.53;;
16766;SDS011;8501;49.926;8.404;2022-12-18T05:43:58;43.73;;;18.67;;
16766;SDS011;8501;49.926;8.404;2022-12-18T05:46:24;48.70;;;19.40;;
16766;SDS011;8501;49.926;8.404;2022-12-18T05:48:50;49.20;;;19.63;;
16766;SDS011;8501;49.926;8.404;2022-12-18T05:51:16;51.43;;;20.80;;
16766;SDS011;8501;49.926;8.404;2022-12-18T05:53:44;50.40;;;20.47;;
16766;SDS011;8501;49.926;8.404;2022-12-18T05:56:11;42.37;;;19.43;;
16766;SDS011;8501;49.926;8.404;2022-12-18T05:58:44;50.00;;;20.03;;
16766;SDS011;8501;49.926;8.404;2022-12-18T06:03:36;48.87;;;19.97;;
16766;SDS011;8501;49.926;8.404;2022-12-18T06:06:02;55.37;;;20.47;;
16766;SDS011;8501;49.926;8.404;2022-12-18T06:08:27;49.60;;;20.80;;
16766;SDS011;8501;49.926;8.404;2022-12-18T06:10:53;50.10;;;19.53;;
16766;SDS011;8501;49.926;8.404;2022-12-18T06:13:19;45.93;;;19.33;;
16766;SDS011;8501;49.926;8.404;2022-12-18T06:15:45;45.67;;;19.33;;
16766;SDS011;8501;49.926;8.404;2022-12-18T06:18:11;48.30;;;20.27;;
16766;SDS011;8501;49.926;8.404;2022-12-18T06:20:36;49.33;;;20.87;;
16766;SDS011;8501;49.926;8.404;2022-12-18T06:23:05;47.30;;;19.73;;
16766;SDS011;8501;49.926;8.404;2022-12-18T06:25:31;46.90;;;19.60;;
16766;SDS011;8501;49.926;8.404;2022-12-18T06:27:57;49.37;;;20.27;;
16766;SDS011;8501;49.926;8.404;2022-12-18T06:30:23;49.07;;;20.37;;
16766;SDS011;8501;49.926;8.404;2022-12-18T06:32:49;49.43;;;21.37;;
16766;SDS011;8501;49.926;8.404;2022-12-18T06:35:14;47.63;;;19.73;;
16766;SDS011;8501;49.926;8.404;2022-12-18T06:37:40;42.70;;;17.33;;
16766;SDS011;8501;49.926;8.404;2022-12-18T06:40:06;45.80;;;19.87;;
16766;SDS011;8501;49.926;8.404;2022-12-18T06:42:32;53.37;;;20.53;;
16766;SDS011;8501;49.926;8.404;2022-12-18T06:44:58;47.63;;;19.33;;
16766;SDS011;8501;49.926;8.404;2022-12-18T06:47:23;45.90;;;19.00;;
16766;SDS011;8501;49.926;8.404;2022-12-18T06:49:49;46.80;;;20.00;;
16766;SDS011;8501;49.926;8.404;2022-12-18T06:52:15;47.83;;;19.73;;
16766;SDS011;8501;49.926;8.404;2022-12-18T06:54:41;53.80;;;21.13;;
16766;SDS011;8501;49.926;8.404;2022-12-18T06:57:06;51.70;;;21.30;;
16766;SDS011;8501;49.926;8.404;2022-12-18T06:59:32;54.50;;;21.50;;
16766;SDS011;8501;49.926;8.404;2022-12-18T07:01:58;49.63;;;21.10;;
16766;SDS011;8501;49.926;8.404;2022-12-18T07:04:28;48.47;;;19.70;;
16766;SDS011;8501;49.926;8.404;2022-12-18T07:06:54;47.73;;;20.00;;
16766;SDS011;8501;49.926;8.404;2022-12-18T07:09:20;47.23;;;18.77;;
16766;SDS011;8501;49.926;8.404;2022-12-18T07:11:45;48.50;;;20.53;;
16766;SDS011;8501;49.926;8.404;2022-12-18T07:14:11;48.30;;;21.10;;
16766;SDS011;8501;49.926;8.404;2022-12-18T07:16:36;45.90;;;20.10;;
16766;SDS011;8501;49.926;8.404;2022-12-18T07:19:02;49.63;;;20.53;;
16766;SDS011;8501;49.926;8.404;2022-12-18T07:21:27;48.60;;;20.87;;
16766;SDS011;8501;49.926;8.404;2022-12-18T07:23:53;49.33;;;18.87;;
16766;SDS011;8501;49.926;8.404;2022-12-18T07:26:19;48.50;;;18.97;;
16766;SDS011;8501;49.926;8.404;2022-12-18T07:28:46;48.27;;;20.57;;
16766;SDS011;8501;49.926;8.404;2022-12-18T07:31:12;56.63;;;22.87;;
16766;SDS011;8501;49.926;8.404;2022-12-18T07:33:40;47.67;;;21.80;;
16766;SDS011;8501;49.926;8.404;2022-12-18T07:36:06;61.37;;;23.90;;
16766;SDS011;8501;49.926;8.404;2022-12-18T07:38:33;71.23;;;28.20;;
16766;SDS011;8501;49.926;8.404;2022-12-18T07:41:03;71.23;;;28.00;;
16766;SDS011;8501;49.926;8.404;2022-12-18T07:43:30;71.43;;;29.73;;
16766;SDS011;8501;49.926;8.404;2022-12-18T07:45:56;64.07;;;29.53;;
16766;SDS011;8501;49.926;8.404;2022-12-18T07:48:21;67.13;;;29.23;;
16766;SDS011;8501;49.926;8.404;2022-12-18T07:50:47;64.63;;;27.30;;
16766;SDS011;8501;49.926;8.404;2022-12-18T07:53:13;52.43;;;23.00;;
16766;SDS011;8501;49.926;8.404;2022-12-18T07:55:39;55.23;;;21.93;;
16766;SDS011;8501;49.926;8.404;2022-12-18T07:58:06;58.40;;;24.60;;
16766;SDS011;8501;49.926;8.404;2022-12-18T08:00:32;50.67;;;21.97;;
16766;SDS011;8501;49.926;8.404;2022-12-18T08:02:58;51.83;;;23.53;;
16766;SDS011;8501;49.926;8.404;2022-12-18T08:05:23;52.67;;;23.40;;
16766;SDS011;8501;49.926;8.404;2022-12-18T08:07:49;48.87;;;21.70;;
16766;SDS011;8501;49.926;8.404;2022-12-18T08:10:15;49.27;;;21.20;;
16766;SDS011;8501;49.926;8.404;2022-12-18T08:12:41;53.30;;;20.97;;
16766;SDS011;8501;49.926;8.404;2022-12-18T08:15:06;58.27;;;22.67;;
16766;SDS011;8501;49.926;8.404;2022-12-18T08:17:32;53.17;;;22.40;;
16766;SDS011;8501;49.926;8.404;2022-12-18T08:19:58;52.03;;;22.37;;
16766;SDS011;8501;49.926;8.404;2022-12-18T08:22:23;59.33;;;24.40;;
16766;SDS011;8501;49.926;8.404;2022-12-18T08:24:49;54.90;;;23.30;;
16766;SDS011;8501;49.926;8.404;2022-12-18T08:27:15;56.80;;;23.53;;
16766;SDS011;8501;49.926;8.404;2022-12-18T08:29:40;59.63;;;24.20;;
16766;SDS011;8501;49.926;8.404;2022-12-18T08:32:06;63.17;;;24.03;;
16766;SDS011;8501;49.926;8.404;2022-12-18T08:34:31;57.60;;;24.30;;
16766;SDS011;8501;49.926;8.404;2022-12-18T08:36:57;56.23;;;23.57;;
16766;SDS011;8501;49.926;8.404;2022-12-18T08:39:22;59.50;;;25.03;;
16766;SDS011;8501;49.926;8.404;2022-12-18T08:41:48;62.80;;;25.60;;
16766;SDS011;8501;49.926;8.404;2022-12-18T08:44:34;59.93;;;24.23;;
16766;SDS011;8501;49.926;8.404;2022-12-18T08:47:02;57.70;;;25.70;;
16766;SDS011;8501;49.926;8.404;2022-12-18T08:49:28;56.03;;;25.60;;
16766;SDS011;8501;49.926;8.404;2022-12-18T08:51:54;59.23;;;25.40;;
16766;SDS011;8501;49.926;8.404;2022-12-18T08:54:21;59.70;;;25.80;;
16766;SDS011;8501;49.926;8.404;2022-12-18T08:56:47;61.30;;;25.47;;
16766;SDS011;8501;49.926;8.404;2022-12-18T08:59:14;63.03;;;24.27;;
16766;SDS011;8501;49.926;8.404;2022-12-18T09:01:40;61.10;;;24.90;;
16766;SDS011;8501;49.926;8.404;2022-12-18T09:04:05;63.03;;;25.70;;
16766;SDS011;8501;49.926;8.404;2022-12-18T09:06:32;72.17;;;25.93;;
16766;SDS011;8501;49.926;8.404;2022-12-18T09:08:58;64.30;;;25.90;;
16766;SDS011;8501;49.926;8.404;2022-12-18T09:11:25;57.47;;;24.23;;
16766;SDS011;8501;49.926;8.404;2022-12-18T09:13:51;64.67;;;24.90;;
16766;SDS011;8501;49.926;8.404;2022-12-18T09:16:18;64.50;;;26.17;;
16766;SDS011;8501;49.926;8.404;2022-12-18T09:18:44;67.80;;;27.70;;
16766;SDS011;8501;49.926;8.404;2022-12-18T09:21:13;62.70;;;27.70;;
16766;SDS011;8501;49.926;8.404;2022-12-18T09:23:41;73.17;;;29.00;;
16766;SDS011;8501;49.926;8.404;2022-12-18T09:26:07;65.77;;;26.90;;
16766;SDS011;8501;49.926;8.404;2022-12-18T09:28:33;71.30;;;28.23;;
16766;SDS011;8501;49.926;8.404;2022-12-18T09:30:59;62.80;;;27.97;;
16766;SDS011;8501;49.926;8.404;2022-12-18T09:33:30;72.77;;;28.63;;
16766;SDS011;8501;49.926;8.404;2022-12-18T09:35:55;63.87;;;29.03;;
16766;SDS011;8501;49.926;8.404;2022-12-18T09:38:21;72.00;;;28.57;;
16766;SDS011;8501;49.926;8.404;2022-12-18T09:40:49;71.63;;;30.27;;
16766;SDS011;8501;49.926;8.404;2022-12-18T09:43:18;71.10;;;29.80;;
16766;SDS011;8501;49.926;8.404;2022-12-18T09:46:03;78.47;;;31.23;;
16766;SDS011;8501;49.926;8.404;2022-12-18T09:48:34;63.93;;;26.80;;
16766;SDS011;8501;49.926;8.404;2022-12-18T09:51:11;68.43;;;28.77;;
16766;SDS011;8501;49.926;8.404;2022-12-18T09:53:53;61.47;;;28.40;;
16766;SDS011;8501;49.926;8.404;2022-12-18T09:56:22;68.67;;;28.80;;
16766;SDS011;8501;49.926;8.404;2022-12-18T09:58:57;70.03;;;28.83;;
16766;SDS011;8501;49.926;8.404;2022-12-18T10:01:24;65.47;;;28.93;;
16766;SDS011;8501;49.926;8.404;2022-12-18T10:03:51;80.13;;;34.37;;
16766;SDS011;8501;49.926;8.404;2022-12-18T10:09:12;109.70;;;40.60;;
16766;SDS011;8501;49.926;8.404;2022-12-18T10:22:28;68.60;;;28.57;;
16766;SDS011;8501;49.926;8.404;2022-12-18T10:25:05;69.60;;;28.73;;
16766;SDS011;8501;49.926;8.404;2022-12-18T10:27:44;73.90;;;30.40;;
16766;SDS011;8501;49.926;8.404;2022-12-18T10:30:14;79.03;;;29.97;;
16766;SDS011;8501;49.926;8.404;2022-12-18T10:32:41;70.43;;;31.00;;
16766;SDS011;8501;49.926;8.404;2022-12-18T10:35:07;72.57;;;30.90;;
16766;SDS011;8501;49.926;8.404;2022-12-18T10:37:58;73.23;;;30.10;;
16766;SDS011;8501;49.926;8.404;2022-12-18T10:40:57;73.73;;;30.17;;
16766;SDS011;8501;49.926;8.404;2022-12-18T10:43:35;75.53;;;30.03;;
16766;SDS011;8501;49.926;8.404;2022-12-18T10:48:27;73.10;;;29.83;;
16766;SDS011;8501;49.926;8.404;2022-12-18T10:50:54;68.20;;;28.97;;
16766;SDS011;8501;49.926;8.404;2022-12-18T10:53:24;66.70;;;27.43;;
16766;SDS011;8501;49.926;8.404;2022-12-18T10:55:52;68.70;;;29.00;;
16766;SDS011;8501;49.926;8.404;2022-12-18T10:58:21;64.73;;;28.40;;
16766;SDS011;8501;49.926;8.404;2022-12-18T11:03:37;67.30;;;28.80;;
16766;SDS011;8501;49.926;8.404;2022-12-18T11:06:09;70.50;;;28.97;;
16766;SDS011;8501;49.926;8.404;2022-12-18T11:08:36;69.40;;;30.43;;
16766;SDS011;8501;49.926;8.404;2022-12-18T11:11:02;66.60;;;29.70;;
16766;SDS011;8501;49.926;8.404;2022-12-18T11:13:31;69.47;;;29.97;;
16766;SDS011;8501;49.926;8.404;2022-12-18T11:15:57;69.70;;;30.43;;
16766;SDS011;8501;49.926;8.404;2022-12-18T11:18:33;71.60;;;29.40;;
16766;SDS011;8501;49.926;8.404;2022-12-18T11:21:07;75.97;;;30.97;;
16766;SDS011;8501;49.926;8.404;2022-12-18T11:23:35;75.70;;;31.23;;
16766;SDS011;8501;49.926;8.404;2022-12-18T11:26:15;73.23;;;31.03;;
16766;SDS011;8501;49.926;8.404;2022-12-18T11:28:47;75.27;;;31.83;;
16766;SDS011;8501;49.926;8.404;2022-12-18T11:36:28;74.57;;;31.70;;
16766;SDS011;8501;49.926;8.404;2022-12-18T11:38:59;74.33;;;31.53;;
16766;SDS011;8501;49.926;8.404;2022-12-18T11:41:41;70.73;;;29.77;;
16766;SDS011;8501;49.926;8.404;2022-12-18T11:44:35;71.83;;;30.03;;
16766;SDS011;8501;49.926;8.404;2022-12-18T11:47:10;71.97;;;32.30;;
16766;SDS011;8501;49.926;8.404;2022-12-18T11:49:38;81.27;;;32.10;;
16766;SDS011;8501;49.926;8.404;2022-12-18T11:54:39;68.73;;;31.50;;
16766;SDS011;8501;49.926;8.404;2022-12-18T12:00:10;69.53;;;31.50;;
16766;SDS011;8501;49.926;8.404;2022-12-18T12:05:58;74.43;;;29.43;;
16766;SDS011;8501;49.926;8.404;2022-12-18T12:11:38;71.87;;;28.93;;
16766;SDS011;8501;49.926;8.404;2022-12-18T12:17:25;70.70;;;28.87;;
16766;SDS011;8501;49.926;8.404;2022-12-18T12:20:07;81.57;;;30.40;;
16766;SDS011;8501;49.926;8.404;2022-12-18T12:30:40;76.27;;;29.67;;
16766;SDS011;8501;49.926;8.404;2022-12-18T12:36:03;71.50;;;28.83;;
16766;SDS011;8501;49.926;8.404;2022-12-18T12:38:42;70.03;;;26.67;;
16766;SDS011;8501;49.926;8.404;2022-12-18T12:41:14;66.73;;;26.60;;
16766;SDS011;8501;49.926;8.404;2022-12-18T12:44:02;66.87;;;28.70;;
16766;SDS011;8501;49.926;8.404;2022-12-18T12:46:32;72.83;;;28.07;;
16766;SDS011;8501;49.926;8.404;2022-12-18T12:49:03;63.43;;;26.10;;
16766;SDS011;8501;49.926;8.404;2022-12-18T12:51:35;69.57;;;28.63;;
16766;SDS011;8501;49.926;8.404;2022-12-18T12:54:04;66.30;;;27.77;;
16766;SDS011;8501;49.926;8.404;2022-12-18T12:56:42;79.67;;;30.07;;
16766;SDS011;8501;49.926;8.404;2022-12-18T13:01:53;62.83;;;27.47;;
16766;SDS011;8501;49.926;8.404;2022-12-18T13:04:35;68.83;;;26.03;;
16766;SDS011;8501;49.926;8.404;2022-12-18T13:12:54;66.23;;;25.53;;
16766;SDS011;8501;49.926;8.404;2022-12-18T13:20:40;62.17;;;25.63;;
16766;SDS011;8501;49.926;8.404;2022-12-18T13:25:49;70.57;;;25.67;;
16766;SDS011;8501;49.926;8.404;2022-12-18T13:28:16;69.90;;;26.03;;
16766;SDS011;8501;49.926;8.404;2022-12-18T13:35:39;72.43;;;26.57;;
16766;SDS011;8501;49.926;8.404;2022-12-18T13:40:55;69.07;;;25.57;;
16766;SDS011;8501;49.926;8.404;2022-12-18T13:43:29;69.27;;;25.43;;
16766;SDS011;8501;49.926;8.404;2022-12-18T13:46:02;64.90;;;25.67;;
16766;SDS011;8501;49.926;8.404;2022-12-18T13:51:39;65.13;;;24.87;;
16766;SDS011;8501;49.926;8.404;2022-12-18T13:57:05;68.23;;;26.00;;
16766;SDS011;8501;49.926;8.404;2022-12-18T13:59:51;72.63;;;26.13;;
16766;SDS011;8501;49.926;8.404;2022-12-18T14:02:17;68.73;;;25.63;;
16766;SDS011;8501;49.926;8.404;2022-12-18T14:04:47;75.23;;;27.07;;
16766;SDS011;8501;49.926;8.404;2022-12-18T14:07:14;68.73;;;25.23;;
16766;SDS011;8501;49.926;8.404;2022-12-18T14:09:42;71.60;;;27.03;;
16766;SDS011;8501;49.926;8.404;2022-12-18T14:12:30;74.50;;;27.87;;
16766;SDS011;8501;49.926;8.404;2022-12-18T14:17:58;73.90;;;27.10;;
16766;SDS011;8501;49.926;8.404;2022-12-18T14:20:43;65.43;;;24.97;;
16766;SDS011;8501;49.926;8.404;2022-12-18T14:25:59;66.23;;;23.77;;
16766;SDS011;8501;49.926;8.404;2022-12-18T14:28:27;67.27;;;24.40;;
16766;SDS011;8501;49.926;8.404;2022-12-18T14:30:53;75.60;;;26.47;;
16766;SDS011;8501;49.926;8.404;2022-12-18T14:33:23;69.80;;;25.97;;
16766;SDS011;8501;49.926;8.404;2022-12-18T14:35:55;76.73;;;26.57;;
16766;SDS011;8501;49.926;8.404;2022-12-18T14:38:32;73.30;;;27.70;;
16766;SDS011;8501;49.926;8.404;2022-12-18T14:41:01;72.27;;;24.67;;
16766;SDS011;8501;49.926;8.404;2022-12-18T14:43:33;80.37;;;26.53;;
16766;SDS011;8501;49.926;8.404;2022-12-18T14:46:01;74.27;;;25.90;;
16766;SDS011;8501;49.926;8.404;2022-12-18T14:48:38;63.73;;;25.13;;
16766;SDS011;8501;49.926;8.404;2022-12-18T14:51:21;74.73;;;28.27;;
16766;SDS011;8501;49.926;8.404;2022-12-18T14:53:59;74.93;;;27.50;;
16766;SDS011;8501;49.926;8.404;2022-12-18T14:56:36;78.17;;;27.67;;
16766;SDS011;8501;49.926;8.404;2022-12-18T14:59:20;79.43;;;29.37;;
16766;SDS011;8501;49.926;8.404;2022-12-18T15:04:26;79.67;;;28.20;;
16766;SDS011;8501;49.926;8.404;2022-12-18T15:12:35;82.63;;;29.30;;
16766;SDS011;8501;49.926;8.404;2022-12-18T15:20:52;94.97;;;33.33;;
16766;SDS011;8501;49.926;8.404;2022-12-18T15:25:55;108.47;;;37.73;;
16766;SDS011;8501;49.926;8.404;2022-12-18T15:28:26;97.30;;;34.97;;
16766;SDS011;8501;49.926;8.404;2022-12-18T15:31:05;83.57;;;32.37;;
16766;SDS011;8501;49.926;8.404;2022-12-18T15:33:37;85.33;;;30.50;;
16766;SDS011;8501;49.926;8.404;2022-12-18T15:36:07;91.07;;;31.87;;
16766;SDS011;8501;49.926;8.404;2022-12-18T15:38:34;85.77;;;31.23;;
16766;SDS011;8501;49.926;8.404;2022-12-18T15:41:00;69.67;;;29.80;;
16766;SDS011;8501;49.926;8.404;2022-12-18T15:43:26;76.53;;;28.33;;
16766;SDS011;8501;49.926;8.404;2022-12-18T15:45:59;74.47;;;27.43;;
16766;SDS011;8501;49.926;8.404;2022-12-18T15:48:25;70.60;;;27.00;;
16766;SDS011;8501;49.926;8.404;2022-12-18T15:50:51;74.07;;;28.20;;
16766;SDS011;8501;49.926;8.404;2022-12-18T15:53:18;71.33;;;28.40;;
16766;SDS011;8501;49.926;8.404;2022-12-18T15:55:44;89.80;;;30.80;;
16766;SDS011;8501;49.926;8.404;2022-12-18T15:58:32;81.80;;;29.50;;
16766;SDS011;8501;49.926;8.404;2022-12-18T16:00:58;91.93;;;31.10;;
16766;SDS011;8501;49.926;8.404;2022-12-18T16:03:25;77.47;;;29.50;;
16766;SDS011;8501;49.926;8.404;2022-12-18T16:05:50;80.23;;;29.20;;
16766;SDS011;8501;49.926;8.404;2022-12-18T16:08:16;81.27;;;29.93;;
16766;SDS011;8501;49.926;8.404;2022-12-18T16:10:42;81.53;;;31.27;;
16766;SDS011;8501;49.926;8.404;2022-12-18T16:13:11;81.93;;;30.60;;
16766;SDS011;8501;49.926;8.404;2022-12-18T16:15:39;77.07;;;29.63;;
16766;SDS011;8501;49.926;8.404;2022-12-18T16:18:07;82.07;;;31.90;;
16766;SDS011;8501;49.926;8.404;2022-12-18T16:20:33;88.60;;;31.53;;
16766;SDS011;8501;49.926;8.404;2022-12-18T16:22:58;95.83;;;34.53;;
16766;SDS011;8501;49.926;8.404;2022-12-18T16:25:25;87.77;;;31.10;;
16766;SDS011;8501;49.926;8.404;2022-12-18T16:27:52;83.80;;;29.97;;
16766;SDS011;8501;49.926;8.404;2022-12-18T16:30:21;84.33;;;30.03;;
16766;SDS011;8501;49.926;8.404;2022-12-18T16:32:48;76.33;;;29.90;;
16766;SDS011;8501;49.926;8.404;2022-12-18T16:35:15;78.03;;;30.10;;
16766;SDS011;8501;49.926;8.404;2022-12-18T16:37:41;80.03;;;30.73;;
16766;SDS011;8501;49.926;8.404;2022-12-18T16:40:09;77.30;;;30.33;;
16766;SDS011;8501;49.926;8.404;2022-12-18T16:42:37;72.90;;;30.00;;
16766;SDS011;8501;49.926;8.404;2022-12-18T16:45:07;80.10;;;31.37;;
16766;SDS011;8501;49.926;8.404;2022-12-18T16:47:34;81.00;;;30.50;;
16766;SDS011;8501;49.926;8.404;2022-12-18T16:50:00;77.43;;;30.53;;
16766;SDS011;8501;49.926;8.404;2022-12-18T16:52:26;78.87;;;29.17;;
16766;SDS011;8501;49.926;8.404;2022-12-18T16:54:54;78.43;;;29.57;;
16766;SDS011;8501;49.926;8.404;2022-12-18T16:57:20;90.13;;;34.30;;